sensor_id;sensor_type;location;lat;lon;timestamp;P1;durP1;ratioP1;P2;durP2;ratioP2
2972;SDS011;1496;51.404;7.232;2022-08-26T00:00:32;7.13;;;5.63;;
2972;SDS011;1496;51.404;7.232;2022-08-26T00:02:59;8.30;;;6.20;;
2972;SDS011;1496;51.404;7.232;2022-08-26T00:05:28;9.13;;;5.60;;
2972;SDS011;1496;51.404;7.232;2022-08-26T00:07:57;6.67;;;6.07;;
2972;SDS011;1496;51.404;7.232;2022-08-26T00:10:23;6.70;;;5.80;;
2972;SDS011;1496;51.404;7.232;2022-08-26T00:12:50;7.17;;;5.93;;
2972;SDS011;1496;51.404;7.232;2022-08-26T00:15:17;8.77;;;5.60;;
2972;SDS011;1496;51.404;7.232;2022-08-26T00:17:50;6.23;;;5.63;;
2972;SDS011;1496;51.404;7.232;2022-08-26T00:20:18;6.50;;;5.10;;
2972;SDS011;1496;51.404;7.232;2022-08-26T00:22:49;7.33;;;5.60;;
2972;SDS011;1496;51.404;7.232;2022-08-26T00:25:15;7.70;;;5.50;;
2972;SDS011;1496;51.404;7.232;2022-08-26T00:27:44;7.10;;;5.33;;
2972;SDS011;1496;51.404;7.232;2022-08-26T00:30:15;8.67;;;5.80;;
2972;SDS011;1496;51.404;7.232;2022-08-26T00:32:45;6.40;;;5.80;;
2972;SDS011;1496;51.404;7.232;2022-08-26T00:35:11;5.90;;;5.30;;
2972;SDS011;1496;51.404;7.232;2022-08-26T00:37:38;6.27;;;5.60;;
2972;SDS011;1496;51.404;7.232;2022-08-26T00:40:06;7.17;;;6.27;;
2972;SDS011;1496;51.404;7.232;2022-08-26T00:42:34;10.73;;;6.57;;
2972;SDS011;1496;51.404;7.232;2022-08-26T00:45:07;7.00;;;5.67;;
2972;SDS011;1496;51.404;7.232;2022-08-26T00:47:37;6.80;;;6.10;;
2972;SDS011;1496;51.404;7.232;2022-08-26T00:50:11;7.30;;;6.53;;
2972;SDS011;1496;51.404;7.232;2022-08-26T00:52:40;6.93;;;6.10;;
2972;SDS011;1496;51.404;7.232;2022-08-26T00:55:10;9.43;;;6.40;;
2972;SDS011;1496;51.404;7.232;2022-08-26T00:57:41;7.13;;;6.37;;
2972;SDS011;1496;51.404;7.232;2022-08-26T01:00:23;8.37;;;7.27;;
2972;SDS011;1496;51.404;7.232;2022-08-26T01:03:00;9.10;;;7.20;;
2972;SDS011;1496;51.404;7.232;2022-08-26T01:05:27;7.00;;;6.30;;
2972;SDS011;1496;51.404;7.232;2022-08-26T01:07:54;8.20;;;6.80;;
2972;SDS011;1496;51.404;7.232;2022-08-26T01:10:23;9.13;;;7.00;;
2972;SDS011;1496;51.404;7.232;2022-08-26T01:12:52;8.27;;;7.43;;
2972;SDS011;1496;51.404;7.232;2022-08-26T01:15:23;10.67;;;7.80;;
2972;SDS011;1496;51.404;7.232;2022-08-26T01:17:58;10.03;;;7.60;;
2972;SDS011;1496;51.404;7.232;2022-08-26T01:23:11;9.00;;;7.47;;
2972;SDS011;1496;51.404;7.232;2022-08-26T01:25:40;8.03;;;7.23;;
2972;SDS011;1496;51.404;7.232;2022-08-26T01:28:13;9.07;;;7.70;;
2972;SDS011;1496;51.404;7.232;2022-08-26T01:30:45;10.23;;;7.53;;
2972;SDS011;1496;51.404;7.232;2022-08-26T01:33:15;12.77;;;9.10;;
2972;SDS011;1496;51.404;7.232;2022-08-26T01:35:45;10.90;;;8.73;;
2972;SDS011;1496;51.404;7.232;2022-08-26T01:38:11;10.70;;;8.37;;
2972;SDS011;1496;51.404;7.232;2022-08-26T01:40:41;12.93;;;7.57;;
2972;SDS011;1496;51.404;7.232;2022-08-26T01:43:10;12.17;;;8.40;;
2972;SDS011;1496;51.404;7.232;2022-08-26T01:45:44;8.90;;;8.00;;
2972;SDS011;1496;51.404;7.232;2022-08-26T01:48:18;11.70;;;8.17;;
2972;SDS011;1496;51.404;7.232;2022-08-26T01:50:48;8.60;;;7.70;;
2972;SDS011;1496;51.404;7.232;2022-08-26T01:53:16;11.97;;;8.67;;
2972;SDS011;1496;51.404;7.232;2022-08-26T01:55:45;9.30;;;8.40;;
2972;SDS011;1496;51.404;7.232;2022-08-26T01:58:26;11.87;;;9.03;;
2972;SDS011;1496;51.404;7.232;2022-08-26T02:01:03;10.83;;;9.23;;
2972;SDS011;1496;51.404;7.232;2022-08-26T02:03:33;13.27;;;9.70;;
2972;SDS011;1496;51.404;7.232;2022-08-26T02:06:05;10.60;;;9.13;;
2972;SDS011;1496;51.404;7.232;2022-08-26T02:08:43;12.83;;;9.10;;
2972;SDS011;1496;51.404;7.232;2022-08-26T02:11:15;14.33;;;9.47;;
2972;SDS011;1496;51.404;7.232;2022-08-26T02:14:02;9.90;;;8.60;;
2972;SDS011;1496;51.404;7.232;2022-08-26T02:16:33;11.13;;;8.97;;
2972;SDS011;1496;51.404;7.232;2022-08-26T02:19:05;12.33;;;9.10;;
2972;SDS011;1496;51.404;7.232;2022-08-26T02:21:44;10.53;;;8.00;;
2972;SDS011;1496;51.404;7.232;2022-08-26T02:24:15;10.60;;;8.17;;
2972;SDS011;1496;51.404;7.232;2022-08-26T02:26:43;11.70;;;8.27;;
2972;SDS011;1496;51.404;7.232;2022-08-26T02:29:12;9.90;;;8.40;;
2972;SDS011;1496;51.404;7.232;2022-08-26T02:31:44;13.73;;;8.27;;
2972;SDS011;1496;51.404;7.232;2022-08-26T02:34:13;11.97;;;9.23;;
2972;SDS011;1496;51.404;7.232;2022-08-26T02:36:42;10.40;;;9.00;;
2972;SDS011;1496;51.404;7.232;2022-08-26T02:39:08;14.17;;;9.87;;
2972;SDS011;1496;51.404;7.232;2022-08-26T02:41:35;10.50;;;8.60;;
2972;SDS011;1496;51.404;7.232;2022-08-26T02:44:00;13.53;;;9.20;;
2972;SDS011;1496;51.404;7.232;2022-08-26T02:46:26;10.03;;;9.10;;
2972;SDS011;1496;51.404;7.232;2022-08-26T02:48:52;11.43;;;9.80;;
2972;SDS011;1496;51.404;7.232;2022-08-26T02:51:17;13.67;;;9.33;;
2972;SDS011;1496;51.404;7.232;2022-08-26T02:53:43;13.13;;;9.50;;
2972;SDS011;1496;51.404;7.232;2022-08-26T02:56:09;12.03;;;9.40;;
2972;SDS011;1496;51.404;7.232;2022-08-26T02:58:35;13.97;;;10.27;;
2972;SDS011;1496;51.404;7.232;2022-08-26T03:01:01;15.33;;;12.07;;
2972;SDS011;1496;51.404;7.232;2022-08-26T03:03:27;12.60;;;11.30;;
2972;SDS011;1496;51.404;7.232;2022-08-26T03:05:53;13.00;;;10.80;;
2972;SDS011;1496;51.404;7.232;2022-08-26T03:08:19;13.43;;;10.20;;
2972;SDS011;1496;51.404;7.232;2022-08-26T03:10:44;12.03;;;10.80;;
2972;SDS011;1496;51.404;7.232;2022-08-26T03:13:11;12.57;;;10.33;;
2972;SDS011;1496;51.404;7.232;2022-08-26T03:15:38;13.40;;;10.20;;
2972;SDS011;1496;51.404;7.232;2022-08-26T03:18:04;15.47;;;10.43;;
2972;SDS011;1496;51.404;7.232;2022-08-26T03:20:30;12.30;;;10.63;;
2972;SDS011;1496;51.404;7.232;2022-08-26T03:22:57;12.97;;;10.97;;
2972;SDS011;1496;51.404;7.232;2022-08-26T03:25:23;12.47;;;10.80;;
2972;SDS011;1496;51.404;7.232;2022-08-26T03:27:50;20.30;;;13.77;;
2972;SDS011;1496;51.404;7.232;2022-08-26T03:30:16;15.67;;;13.10;;
2972;SDS011;1496;51.404;7.232;2022-08-26T03:33:01;17.30;;;13.10;;
2972;SDS011;1496;51.404;7.232;2022-08-26T03:35:26;19.80;;;16.70;;
2972;SDS011;1496;51.404;7.232;2022-08-26T03:37:52;22.10;;;19.70;;
2972;SDS011;1496;51.404;7.232;2022-08-26T03:40:19;23.83;;;20.20;;
2972;SDS011;1496;51.404;7.232;2022-08-26T03:42:45;21.93;;;15.07;;
2972;SDS011;1496;51.404;7.232;2022-08-26T03:45:11;19.37;;;14.20;;
2972;SDS011;1496;51.404;7.232;2022-08-26T03:47:38;21.67;;;18.30;;
2972;SDS011;1496;51.404;7.232;2022-08-26T03:50:08;24.50;;;19.97;;
2972;SDS011;1496;51.404;7.232;2022-08-26T03:52:35;28.50;;;19.17;;
2972;SDS011;1496;51.404;7.232;2022-08-26T03:55:02;21.13;;;18.50;;
2972;SDS011;1496;51.404;7.232;2022-08-26T03:57:29;27.17;;;21.63;;
2972;SDS011;1496;51.404;7.232;2022-08-26T03:59:55;31.57;;;24.33;;
2972;SDS011;1496;51.404;7.232;2022-08-26T04:02:21;25.77;;;22.97;;
2972;SDS011;1496;51.404;7.232;2022-08-26T04:04:46;30.80;;;27.80;;
2972;SDS011;1496;51.404;7.232;2022-08-26T04:07:12;40.33;;;31.67;;
2972;SDS011;1496;51.404;7.232;2022-08-26T04:09:37;32.10;;;28.03;;
2972;SDS011;1496;51.404;7.232;2022-08-26T04:12:03;31.87;;;28.47;;
2972;SDS011;1496;51.404;7.232;2022-08-26T04:14:29;38.40;;;30.70;;
2972;SDS011;1496;51.404;7.232;2022-08-26T04:16:56;37.70;;;32.73;;
2972;SDS011;1496;51.404;7.232;2022-08-26T04:19:22;35.07;;;31.40;;
2972;SDS011;1496;51.404;7.232;2022-08-26T04:21:49;46.53;;;40.60;;
2972;SDS011;1496;51.404;7.232;2022-08-26T04:24:17;45.83;;;38.30;;
2972;SDS011;1496;51.404;7.232;2022-08-26T04:26:44;48.53;;;42.80;;
2972;SDS011;1496;51.404;7.232;2022-08-26T04:29:11;43.67;;;38.50;;
2972;SDS011;1496;51.404;7.232;2022-08-26T04:31:42;44.70;;;39.80;;
2972;SDS011;1496;51.404;7.232;2022-08-26T04:34:09;43.67;;;39.03;;
2972;SDS011;1496;51.404;7.232;2022-08-26T04:36:35;51.27;;;44.27;;
2972;SDS011;1496;51.404;7.232;2022-08-26T04:39:02;46.60;;;39.03;;
2972;SDS011;1496;51.404;7.232;2022-08-26T04:41:28;47.67;;;41.30;;
2972;SDS011;1496;51.404;7.232;2022-08-26T04:43:55;49.60;;;44.13;;
2972;SDS011;1496;51.404;7.232;2022-08-26T04:46:21;64.10;;;49.23;;
2972;SDS011;1496;51.404;7.232;2022-08-26T04:48:48;52.30;;;44.23;;
2972;SDS011;1496;51.404;7.232;2022-08-26T04:51:16;61.23;;;49.70;;
2972;SDS011;1496;51.404;7.232;2022-08-26T04:53:43;68.80;;;53.40;;
2972;SDS011;1496;51.404;7.232;2022-08-26T04:56:10;77.77;;;53.07;;
2972;SDS011;1496;51.404;7.232;2022-08-26T04:58:36;72.90;;;56.20;;
2972;SDS011;1496;51.404;7.232;2022-08-26T05:01:02;80.60;;;60.97;;
2972;SDS011;1496;51.404;7.232;2022-08-26T05:03:29;77.33;;;59.33;;
2972;SDS011;1496;51.404;7.232;2022-08-26T05:05:54;86.80;;;62.10;;
2972;SDS011;1496;51.404;7.232;2022-08-26T05:08:20;88.90;;;60.90;;
2972;SDS011;1496;51.404;7.232;2022-08-26T05:10:48;84.60;;;63.70;;
2972;SDS011;1496;51.404;7.232;2022-08-26T05:13:16;84.37;;;62.40;;
2972;SDS011;1496;51.404;7.232;2022-08-26T05:15:43;86.87;;;62.70;;
2972;SDS011;1496;51.404;7.232;2022-08-26T05:18:10;84.10;;;62.83;;
2972;SDS011;1496;51.404;7.232;2022-08-26T05:20:42;102.27;;;64.10;;
2972;SDS011;1496;51.404;7.232;2022-08-26T05:23:09;87.83;;;63.20;;
2972;SDS011;1496;51.404;7.232;2022-08-26T05:25:36;94.00;;;66.43;;
2972;SDS011;1496;51.404;7.232;2022-08-26T05:28:04;97.60;;;67.10;;
2972;SDS011;1496;51.404;7.232;2022-08-26T05:30:30;92.13;;;65.07;;
2972;SDS011;1496;51.404;7.232;2022-08-26T05:32:56;96.97;;;66.90;;
2972;SDS011;1496;51.404;7.232;2022-08-26T05:35:21;96.77;;;68.17;;
2972;SDS011;1496;51.404;7.232;2022-08-26T05:37:47;91.27;;;63.67;;
2972;SDS011;1496;51.404;7.232;2022-08-26T05:40:13;91.63;;;65.40;;
2972;SDS011;1496;51.404;7.232;2022-08-26T05:42:39;91.40;;;65.30;;
2972;SDS011;1496;51.404;7.232;2022-08-26T05:45:06;93.10;;;65.87;;
2972;SDS011;1496;51.404;7.232;2022-08-26T05:47:32;91.43;;;65.13;;
2972;SDS011;1496;51.404;7.232;2022-08-26T05:49:58;85.30;;;64.30;;
2972;SDS011;1496;51.404;7.232;2022-08-26T05:52:24;93.20;;;64.00;;
2972;SDS011;1496;51.404;7.232;2022-08-26T05:54:50;76.70;;;58.53;;
2972;SDS011;1496;51.404;7.232;2022-08-26T05:57:16;79.00;;;59.27;;
2972;SDS011;1496;51.404;7.232;2022-08-26T05:59:42;83.37;;;62.50;;
2972;SDS011;1496;51.404;7.232;2022-08-26T06:02:07;81.13;;;60.27;;
2972;SDS011;1496;51.404;7.232;2022-08-26T06:04:34;73.70;;;56.37;;
2972;SDS011;1496;51.404;7.232;2022-08-26T06:06:59;84.30;;;56.47;;
2972;SDS011;1496;51.404;7.232;2022-08-26T06:09:25;81.70;;;57.43;;
2972;SDS011;1496;51.404;7.232;2022-08-26T06:11:51;73.17;;;53.80;;
2972;SDS011;1496;51.404;7.232;2022-08-26T06:14:16;71.70;;;55.10;;
2972;SDS011;1496;51.404;7.232;2022-08-26T06:16:42;69.10;;;53.77;;
2972;SDS011;1496;51.404;7.232;2022-08-26T06:19:09;69.00;;;50.83;;
2972;SDS011;1496;51.404;7.232;2022-08-26T06:21:40;59.77;;;49.23;;
2972;SDS011;1496;51.404;7.232;2022-08-26T06:24:09;69.60;;;49.37;;
2972;SDS011;1496;51.404;7.232;2022-08-26T06:26:56;67.97;;;50.43;;
2972;SDS011;1496;51.404;7.232;2022-08-26T06:29:29;59.93;;;47.70;;
2972;SDS011;1496;51.404;7.232;2022-08-26T06:31:57;56.60;;;44.77;;
2972;SDS011;1496;51.404;7.232;2022-08-26T06:34:24;65.83;;;47.97;;
2972;SDS011;1496;51.404;7.232;2022-08-26T06:36:52;53.77;;;45.00;;
2972;SDS011;1496;51.404;7.232;2022-08-26T06:39:19;61.80;;;44.83;;
2972;SDS011;1496;51.404;7.232;2022-08-26T06:41:45;55.07;;;44.90;;
2972;SDS011;1496;51.404;7.232;2022-08-26T06:44:15;49.70;;;41.07;;
2972;SDS011;1496;51.404;7.232;2022-08-26T06:46:41;47.60;;;38.90;;
2972;SDS011;1496;51.404;7.232;2022-08-26T06:49:08;47.13;;;41.90;;
2972;SDS011;1496;51.404;7.232;2022-08-26T06:51:35;50.63;;;43.10;;
2972;SDS011;1496;51.404;7.232;2022-08-26T06:54:03;49.00;;;41.60;;
2972;SDS011;1496;51.404;7.232;2022-08-26T06:56:34;58.37;;;43.90;;
2972;SDS011;1496;51.404;7.232;2022-08-26T06:59:01;47.37;;;41.07;;
2972;SDS011;1496;51.404;7.232;2022-08-26T07:01:29;51.03;;;43.67;;
2972;SDS011;1496;51.404;7.232;2022-08-26T07:03:58;48.60;;;40.30;;
2972;SDS011;1496;51.404;7.232;2022-08-26T07:06:27;43.50;;;38.60;;
2972;SDS011;1496;51.404;7.232;2022-08-26T07:08:57;47.60;;;41.00;;
2972;SDS011;1496;51.404;7.232;2022-08-26T07:11:29;44.60;;;38.57;;
2972;SDS011;1496;51.404;7.232;2022-08-26T07:13:55;44.07;;;37.73;;
2972;SDS011;1496;51.404;7.232;2022-08-26T07:16:23;47.73;;;37.13;;
2972;SDS011;1496;51.404;7.232;2022-08-26T07:18:49;48.50;;;39.60;;
2972;SDS011;1496;51.404;7.232;2022-08-26T07:21:18;58.53;;;41.77;;
2972;SDS011;1496;51.404;7.232;2022-08-26T07:23:44;56.33;;;44.97;;
2972;SDS011;1496;51.404;7.232;2022-08-26T07:26:11;61.27;;;45.47;;
2972;SDS011;1496;51.404;7.232;2022-08-26T07:28:40;51.93;;;41.30;;
2972;SDS011;1496;51.404;7.232;2022-08-26T07:31:11;49.47;;;43.97;;
2972;SDS011;1496;51.404;7.232;2022-08-26T07:33:37;59.47;;;47.57;;
2972;SDS011;1496;51.404;7.232;2022-08-26T07:36:04;49.03;;;41.43;;
2972;SDS011;1496;51.404;7.232;2022-08-26T07:38:31;54.90;;;46.57;;
2972;SDS011;1496;51.404;7.232;2022-08-26T07:40:57;56.10;;;46.73;;
2972;SDS011;1496;51.404;7.232;2022-08-26T07:43:23;60.23;;;49.87;;
2972;SDS011;1496;51.404;7.232;2022-08-26T07:45:49;57.70;;;48.63;;
2972;SDS011;1496;51.404;7.232;2022-08-26T07:48:15;59.63;;;49.70;;
2972;SDS011;1496;51.404;7.232;2022-08-26T07:50:42;48.90;;;42.83;;
2972;SDS011;1496;51.404;7.232;2022-08-26T07:53:08;50.33;;;42.07;;
2972;SDS011;1496;51.404;7.232;2022-08-26T07:55:33;48.73;;;41.10;;
2972;SDS011;1496;51.404;7.232;2022-08-26T07:57:59;49.40;;;42.73;;
2972;SDS011;1496;51.404;7.232;2022-08-26T08:00:25;51.80;;;41.47;;
2972;SDS011;1496;51.404;7.232;2022-08-26T08:02:51;44.67;;;39.40;;
2972;SDS011;1496;51.404;7.232;2022-08-26T08:05:18;48.87;;;39.17;;
2972;SDS011;1496;51.404;7.232;2022-08-26T08:07:45;51.23;;;39.77;;
2972;SDS011;1496;51.404;7.232;2022-08-26T08:10:16;50.37;;;36.47;;
2972;SDS011;1496;51.404;7.232;2022-08-26T08:12:46;52.83;;;37.40;;
2972;SDS011;1496;51.404;7.232;2022-08-26T08:15:13;40.27;;;35.17;;
2972;SDS011;1496;51.404;7.232;2022-08-26T08:17:40;39.03;;;33.40;;
2972;SDS011;1496;51.404;7.232;2022-08-26T08:20:07;37.13;;;32.43;;
2972;SDS011;1496;51.404;7.232;2022-08-26T08:22:34;45.30;;;37.23;;
2972;SDS011;1496;51.404;7.232;2022-08-26T08:24:59;41.23;;;33.83;;
2972;SDS011;1496;51.404;7.232;2022-08-26T08:27:25;35.50;;;30.87;;
2972;SDS011;1496;51.404;7.232;2022-08-26T08:29:52;42.00;;;32.93;;
2972;SDS011;1496;51.404;7.232;2022-08-26T08:32:18;45.70;;;36.10;;
2972;SDS011;1496;51.404;7.232;2022-08-26T08:34:45;39.73;;;34.50;;
2972;SDS011;1496;51.404;7.232;2022-08-26T08:37:11;42.40;;;33.83;;
2972;SDS011;1496;51.404;7.232;2022-08-26T08:39:37;41.00;;;36.57;;
2972;SDS011;1496;51.404;7.232;2022-08-26T08:44:45;40.53;;;35.57;;
2972;SDS011;1496;51.404;7.232;2022-08-26T08:47:19;40.30;;;35.40;;
2972;SDS011;1496;51.404;7.232;2022-08-26T08:49:57;39.83;;;34.93;;
2972;SDS011;1496;51.404;7.232;2022-08-26T08:52:28;37.10;;;33.17;;
2972;SDS011;1496;51.404;7.232;2022-08-26T08:54:59;35.90;;;31.70;;
2972;SDS011;1496;51.404;7.232;2022-08-26T09:00:08;38.73;;;33.43;;
2972;SDS011;1496;51.404;7.232;2022-08-26T09:02:56;39.23;;;33.87;;
2972;SDS011;1496;51.404;7.232;2022-08-26T09:05:24;37.30;;;33.23;;
2972;SDS011;1496;51.404;7.232;2022-08-26T09:08:05;35.53;;;31.63;;
2972;SDS011;1496;51.404;7.232;2022-08-26T09:10:51;43.03;;;33.83;;
2972;SDS011;1496;51.404;7.232;2022-08-26T09:13:20;33.67;;;30.10;;
2972;SDS011;1496;51.404;7.232;2022-08-26T09:18:36;36.77;;;32.67;;
2972;SDS011;1496;51.404;7.232;2022-08-26T09:21:16;37.00;;;31.37;;
2972;SDS011;1496;51.404;7.232;2022-08-26T09:23:43;38.20;;;32.27;;
2972;SDS011;1496;51.404;7.232;2022-08-26T09:28:42;33.30;;;29.70;;
2972;SDS011;1496;51.404;7.232;2022-08-26T09:31:13;34.87;;;30.23;;
2972;SDS011;1496;51.404;7.232;2022-08-26T09:33:45;34.63;;;30.07;;
2972;SDS011;1496;51.404;7.232;2022-08-26T09:38:36;40.10;;;35.07;;
2972;SDS011;1496;51.404;7.232;2022-08-26T09:41:03;36.17;;;32.47;;
2972;SDS011;1496;51.404;7.232;2022-08-26T09:43:31;36.30;;;32.60;;
2972;SDS011;1496;51.404;7.232;2022-08-26T09:46:13;46.03;;;35.83;;
2972;SDS011;1496;51.404;7.232;2022-08-26T09:48:46;39.37;;;35.20;;
2972;SDS011;1496;51.404;7.232;2022-08-26T09:53:54;36.37;;;32.37;;
2972;SDS011;1496;51.404;7.232;2022-08-26T09:58:47;34.13;;;30.60;;
2972;SDS011;1496;51.404;7.232;2022-08-26T10:04:02;33.67;;;29.87;;
2972;SDS011;1496;51.404;7.232;2022-08-26T10:06:28;37.00;;;30.97;;
2972;SDS011;1496;51.404;7.232;2022-08-26T10:08:55;33.23;;;29.27;;
2972;SDS011;1496;51.404;7.232;2022-08-26T10:14:12;37.57;;;29.60;;
2972;SDS011;1496;51.404;7.232;2022-08-26T10:16:54;35.97;;;31.47;;
2972;SDS011;1496;51.404;7.232;2022-08-26T10:19:25;34.60;;;31.10;;
2972;SDS011;1496;51.404;7.232;2022-08-26T10:22:10;40.47;;;29.57;;
2972;SDS011;1496;51.404;7.232;2022-08-26T10:24:48;34.00;;;29.87;;
2972;SDS011;1496;51.404;7.232;2022-08-26T10:27:30;40.13;;;32.67;;
2972;SDS011;1496;51.404;7.232;2022-08-26T10:30:13;35.87;;;29.10;;
2972;SDS011;1496;51.404;7.232;2022-08-26T10:32:47;35.60;;;30.73;;
2972;SDS011;1496;51.404;7.232;2022-08-26T10:35:15;37.30;;;29.37;;
2972;SDS011;1496;51.404;7.232;2022-08-26T10:37:51;31.70;;;26.93;;
2972;SDS011;1496;51.404;7.232;2022-08-26T10:40:30;26.90;;;24.00;;
2972;SDS011;1496;51.404;7.232;2022-08-26T10:43:08;28.83;;;24.97;;
2972;SDS011;1496;51.404;7.232;2022-08-26T10:45:46;32.73;;;27.27;;
2972;SDS011;1496;51.404;7.232;2022-08-26T10:48:21;29.87;;;26.87;;
2972;SDS011;1496;51.404;7.232;2022-08-26T10:50:53;26.93;;;24.23;;
2972;SDS011;1496;51.404;7.232;2022-08-26T11:04:49;21.33;;;18.93;;
2972;SDS011;1496;51.404;7.232;2022-08-26T11:09:55;22.80;;;19.57;;
2972;SDS011;1496;51.404;7.232;2022-08-26T11:13:08;22.00;;;19.67;;
2972;SDS011;1496;51.404;7.232;2022-08-26T11:17:55;26.80;;;23.37;;
2972;SDS011;1496;51.404;7.232;2022-08-26T11:26:11;26.60;;;23.13;;
2972;SDS011;1496;51.404;7.232;2022-08-26T11:31:02;26.43;;;23.60;;
2972;SDS011;1496;51.404;7.232;2022-08-26T11:33:46;28.47;;;25.37;;
2972;SDS011;1496;51.404;7.232;2022-08-26T11:36:58;31.00;;;24.90;;
2972;SDS011;1496;51.404;7.232;2022-08-26T11:39:26;28.03;;;25.00;;
2972;SDS011;1496;51.404;7.232;2022-08-26T11:41:56;30.00;;;23.93;;
2972;SDS011;1496;51.404;7.232;2022-08-26T11:44:25;28.30;;;25.10;;
2972;SDS011;1496;51.404;7.232;2022-08-26T11:46:59;29.13;;;23.00;;
2972;SDS011;1496;51.404;7.232;2022-08-26T11:49:26;28.63;;;22.67;;
2972;SDS011;1496;51.404;7.232;2022-08-26T11:52:06;23.07;;;19.80;;
2972;SDS011;1496;51.404;7.232;2022-08-26T11:55:08;27.63;;;22.07;;
2972;SDS011;1496;51.404;7.232;2022-08-26T11:57:39;23.33;;;21.03;;
2972;SDS011;1496;51.404;7.232;2022-08-26T12:00:09;22.13;;;19.87;;
2972;SDS011;1496;51.404;7.232;2022-08-26T12:02:42;22.83;;;18.60;;
2972;SDS011;1496;51.404;7.232;2022-08-26T12:05:08;23.87;;;19.60;;
2972;SDS011;1496;51.404;7.232;2022-08-26T12:07:34;19.83;;;17.70;;
2972;SDS011;1496;51.404;7.232;2022-08-26T12:10:01;21.87;;;16.70;;
2972;SDS011;1496;51.404;7.232;2022-08-26T12:12:29;18.60;;;16.63;;
2972;SDS011;1496;51.404;7.232;2022-08-26T12:17:34;19.63;;;15.00;;
2972;SDS011;1496;51.404;7.232;2022-08-26T12:20:00;16.60;;;13.53;;
2972;SDS011;1496;51.404;7.232;2022-08-26T12:22:27;16.20;;;13.43;;
2972;SDS011;1496;51.404;7.232;2022-08-26T12:24:58;16.93;;;15.20;;
2972;SDS011;1496;51.404;7.232;2022-08-26T12:30:15;26.10;;;15.37;;
2972;SDS011;1496;51.404;7.232;2022-08-26T12:32:45;20.63;;;13.10;;
2972;SDS011;1496;51.404;7.232;2022-08-26T12:35:14;14.10;;;12.37;;
2972;SDS011;1496;51.404;7.232;2022-08-26T12:37:42;18.13;;;11.20;;
2972;SDS011;1496;51.404;7.232;2022-08-26T12:43:00;16.80;;;12.43;;
2972;SDS011;1496;51.404;7.232;2022-08-26T12:45:29;17.80;;;13.37;;
2972;SDS011;1496;51.404;7.232;2022-08-26T12:47:59;19.63;;;11.63;;
2972;SDS011;1496;51.404;7.232;2022-08-26T12:50:36;19.10;;;13.23;;
2972;SDS011;1496;51.404;7.232;2022-08-26T13:03:36;14.07;;;11.00;;
2972;SDS011;1496;51.404;7.232;2022-08-26T13:06:30;16.83;;;12.23;;
2972;SDS011;1496;51.404;7.232;2022-08-26T13:09:00;15.17;;;10.57;;
2972;SDS011;1496;51.404;7.232;2022-08-26T13:14:17;14.50;;;11.33;;
2972;SDS011;1496;51.404;7.232;2022-08-26T13:16:44;17.30;;;10.90;;
2972;SDS011;1496;51.404;7.232;2022-08-26T13:19:15;17.80;;;11.37;;
2972;SDS011;1496;51.404;7.232;2022-08-26T13:21:43;14.53;;;11.67;;
2972;SDS011;1496;51.404;7.232;2022-08-26T13:24:13;12.53;;;10.70;;
2972;SDS011;1496;51.404;7.232;2022-08-26T13:26:41;16.87;;;9.63;;
2972;SDS011;1496;51.404;7.232;2022-08-26T13:29:08;14.00;;;9.70;;
2972;SDS011;1496;51.404;7.232;2022-08-26T13:31:35;13.30;;;10.23;;
2972;SDS011;1496;51.404;7.232;2022-08-26T13:34:02;15.60;;;9.90;;
2972;SDS011;1496;51.404;7.232;2022-08-26T13:36:28;15.57;;;10.70;;
2972;SDS011;1496;51.404;7.232;2022-08-26T13:38:54;10.13;;;8.87;;
2972;SDS011;1496;51.404;7.232;2022-08-26T13:41:20;13.47;;;8.87;;
2972;SDS011;1496;51.404;7.232;2022-08-26T13:43:46;15.73;;;9.40;;
2972;SDS011;1496;51.404;7.232;2022-08-26T13:46:11;14.20;;;10.37;;
2972;SDS011;1496;51.404;7.232;2022-08-26T13:48:38;15.33;;;10.40;;
2972;SDS011;1496;51.404;7.232;2022-08-26T13:51:04;12.83;;;9.50;;
2972;SDS011;1496;51.404;7.232;2022-08-26T13:53:30;13.83;;;10.50;;
2972;SDS011;1496;51.404;7.232;2022-08-26T13:55:57;13.80;;;9.37;;
2972;SDS011;1496;51.404;7.232;2022-08-26T13:58:24;10.93;;;8.50;;
2972;SDS011;1496;51.404;7.232;2022-08-26T14:00:51;13.90;;;8.43;;
2972;SDS011;1496;51.404;7.232;2022-08-26T14:03:17;10.50;;;7.00;;
2972;SDS011;1496;51.404;7.232;2022-08-26T14:05:43;14.37;;;8.07;;
2972;SDS011;1496;51.404;7.232;2022-08-26T14:08:08;11.90;;;8.30;;
2972;SDS011;1496;51.404;7.232;2022-08-26T14:10:34;14.30;;;7.80;;
2972;SDS011;1496;51.404;7.232;2022-08-26T14:13:00;15.43;;;8.40;;
2972;SDS011;1496;51.404;7.232;2022-08-26T14:15:25;14.33;;;7.50;;
2972;SDS011;1496;51.404;7.232;2022-08-26T14:17:51;11.20;;;7.90;;
2972;SDS011;1496;51.404;7.232;2022-08-26T14:20:27;10.80;;;7.70;;
2972;SDS011;1496;51.404;7.232;2022-08-26T14:22:54;10.97;;;8.17;;
2972;SDS011;1496;51.404;7.232;2022-08-26T14:25:20;13.53;;;8.00;;
2972;SDS011;1496;51.404;7.232;2022-08-26T14:27:47;16.53;;;7.60;;
2972;SDS011;1496;51.404;7.232;2022-08-26T14:30:14;14.53;;;7.30;;
2972;SDS011;1496;51.404;7.232;2022-08-26T14:32:42;10.73;;;6.90;;
2972;SDS011;1496;51.404;7.232;2022-08-26T14:35:44;11.40;;;6.30;;
2972;SDS011;1496;51.404;7.232;2022-08-26T14:38:03;9.37;;;6.03;;
2972;SDS011;1496;51.404;7.232;2022-08-26T14:40:29;13.43;;;7.13;;
2972;SDS011;1496;51.404;7.232;2022-08-26T14:42:56;11.60;;;6.83;;
2972;SDS011;1496;51.404;7.232;2022-08-26T14:45:23;14.90;;;6.80;;
2972;SDS011;1496;51.404;7.232;2022-08-26T14:47:50;10.57;;;7.60;;
2972;SDS011;1496;51.404;7.232;2022-08-26T14:50:18;8.80;;;6.90;;
2972;SDS011;1496;51.404;7.232;2022-08-26T14:52:47;9.70;;;7.30;;
2972;SDS011;1496;51.404;7.232;2022-08-26T14:55:39;14.60;;;6.23;;
2972;SDS011;1496;51.404;7.232;2022-08-26T14:58:06;7.83;;;5.40;;
2972;SDS011;1496;51.404;7.232;2022-08-26T15:00:33;11.40;;;5.93;;
2972;SDS011;1496;51.404;7.232;2022-08-26T15:03:00;11.67;;;5.80;;
2972;SDS011;1496;51.404;7.232;2022-08-26T15:05:26;10.13;;;6.13;;
2972;SDS011;1496;51.404;7.232;2022-08-26T15:07:51;13.50;;;7.40;;
2972;SDS011;1496;51.404;7.232;2022-08-26T15:10:17;12.80;;;5.93;;
2972;SDS011;1496;51.404;7.232;2022-08-26T15:12:43;11.00;;;6.10;;
2972;SDS011;1496;51.404;7.232;2022-08-26T15:15:09;6.97;;;5.63;;
2972;SDS011;1496;51.404;7.232;2022-08-26T15:17:37;7.33;;;4.93;;
2972;SDS011;1496;51.404;7.232;2022-08-26T15:20:03;10.77;;;5.67;;
2972;SDS011;1496;51.404;7.232;2022-08-26T15:22:32;6.90;;;4.90;;
2972;SDS011;1496;51.404;7.232;2022-08-26T15:24:58;6.20;;;4.60;;
2972;SDS011;1496;51.404;7.232;2022-08-26T15:27:24;8.20;;;4.67;;
2972;SDS011;1496;51.404;7.232;2022-08-26T15:29:50;12.50;;;4.60;;
2972;SDS011;1496;51.404;7.232;2022-08-26T15:32:16;6.63;;;4.40;;
2972;SDS011;1496;51.404;7.232;2022-08-26T15:34:42;11.00;;;5.40;;
2972;SDS011;1496;51.404;7.232;2022-08-26T15:37:08;8.40;;;5.37;;
2972;SDS011;1496;51.404;7.232;2022-08-26T15:39:33;8.73;;;5.90;;
2972;SDS011;1496;51.404;7.232;2022-08-26T15:41:59;9.33;;;5.60;;
2972;SDS011;1496;51.404;7.232;2022-08-26T15:44:25;7.70;;;5.30;;
2972;SDS011;1496;51.404;7.232;2022-08-26T15:46:51;8.07;;;4.63;;
2972;SDS011;1496;51.404;7.232;2022-08-26T15:49:19;8.20;;;4.90;;
2972;SDS011;1496;51.404;7.232;2022-08-26T15:51:46;11.83;;;5.40;;
2972;SDS011;1496;51.404;7.232;2022-08-26T15:54:15;9.67;;;5.40;;
2972;SDS011;1496;51.404;7.232;2022-08-26T15:56:43;15.00;;;6.67;;
2972;SDS011;1496;51.404;7.232;2022-08-26T15:59:09;10.60;;;6.17;;
2972;SDS011;1496;51.404;7.232;2022-08-26T16:01:35;6.00;;;5.00;;
2972;SDS011;1496;51.404;7.232;2022-08-26T16:04:01;12.67;;;6.00;;
2972;SDS011;1496;51.404;7.232;2022-08-26T16:06:29;13.80;;;6.33;;
2972;SDS011;1496;51.404;7.232;2022-08-26T16:08:56;10.30;;;5.63;;
2972;SDS011;1496;51.404;7.232;2022-08-26T16:11:22;8.70;;;6.20;;
2972;SDS011;1496;51.404;7.232;2022-08-26T16:13:48;16.40;;;5.70;;
2972;SDS011;1496;51.404;7.232;2022-08-26T16:16:14;10.40;;;6.07;;
2972;SDS011;1496;51.404;7.232;2022-08-26T16:18:41;8.83;;;5.90;;